Time;durP1;ratioP1;P1;durP2;ratioP2;P2;SDS_P1;SDS_P2;PMS_P1;PMS_P2;Temp;Humidity;BMP_temperature;BMP_pressure;BME280_temperature;BME280_humidity;BME280_pressure;Samples;Min_cycle;Max_cycle;Signal;HPM_P1;HPM_P2
2021/09/21 00:00:21;;;;;;;10.57;6.93;;;11.20;99.90;;;;;;4990789;28;20240;-64
2021/09/21 00:02:51;;;;;;;7.23;6.13;;;11.20;99.90;;;;;;4987058;28;20254;-64
2021/09/21 00:05:19;;;;;;;7.10;6.20;;;11.30;99.90;;;;;;4997225;28;20239;-64
2021/09/21 00:07:47;;;;;;;6.30;5.70;;;11.30;99.90;;;;;;4994583;28;20705;-64
2021/09/21 00:10:16;;;;;;;7.40;6.50;;;11.30;99.90;;;;;;4992939;28;20233;-64
2021/09/21 00:12:45;;;;;;;7.10;6.40;;;11.30;99.90;;;;;;5002520;28;20241;-64
2021/09/21 00:15:16;;;;;;;7.13;5.93;;;11.30;99.90;;;;;;4997053;28;20716;-64
2021/09/21 00:17:44;;;;;;;6.97;5.63;;;11.30;99.90;;;;;;4999764;28;20238;-64
2021/09/21 00:20:16;;;;;;;7.93;5.97;;;11.30;99.90;;;;;;4996531;28;20242;-64
2021/09/21 00:22:45;;;;;;;6.43;5.83;;;11.30;99.90;;;;;;4990646;28;20701;-64
2021/09/21 00:25:15;;;;;;;8.30;5.73;;;11.40;99.90;;;;;;4991277;28;20612;-64
2021/09/21 00:27:44;;;;;;;7.50;6.23;;;11.40;99.90;;;;;;4990024;28;20291;-64
2021/09/21 00:30:21;;;;;;;6.40;5.80;;;11.40;99.90;;;;;;4993326;28;20252;-64
2021/09/21 00:32:55;;;;;;;6.40;5.80;;;11.40;99.90;;;;;;4993006;28;20264;-64
2021/09/21 00:35:24;;;;;;;6.37;5.77;;;11.40;99.90;;;;;;4964773;28;20792;-64
2021/09/21 00:37:52;;;;;;;6.80;6.10;;;11.40;99.90;;;;;;4991843;28;20244;-64
2021/09/21 00:40:20;;;;;;;6.67;5.70;;;11.40;99.90;;;;;;4994839;28;20260;-64
2021/09/21 00:42:49;;;;;;;6.33;5.73;;;11.40;99.90;;;;;;4990370;28;20233;-64
2021/09/21 00:45:23;;;;;;;7.73;5.57;;;11.40;99.90;;;;;;4988498;28;20594;-64
2021/09/21 00:47:51;;;;;;;7.23;5.83;;;11.50;99.90;;;;;;4985938;28;20244;-64
2021/09/21 00:50:20;;;;;;;7.07;5.90;;;11.50;99.90;;;;;;4995617;28;20248;-64
2021/09/21 00:52:51;;;;;;;7.13;6.43;;;11.50;99.90;;;;;;4996746;28;20256;-64
2021/09/21 00:55:19;;;;;;;6.93;6.23;;;11.40;99.90;;;;;;4992770;28;20720;-64
2021/09/21 00:57:48;;;;;;;6.37;5.73;;;11.40;99.90;;;;;;4986764;28;20247;-64
2021/09/21 01:00:18;;;;;;;6.80;6.10;;;11.50;99.90;;;;;;4994920;28;20255;-64
2021/09/21 01:02:46;;;;;;;6.57;5.87;;;11.50;99.90;;;;;;4994973;28;20279;-63
2021/09/21 01:05:15;;;;;;;7.03;6.03;;;11.50;99.90;;;;;;4989324;28;20705;-64
2021/09/21 01:07:44;;;;;;;6.87;5.57;;;11.60;99.90;;;;;;4991353;28;20586;-64
2021/09/21 01:10:17;;;;;;;7.43;5.80;;;11.60;99.90;;;;;;4991818;28;20331;-64
2021/09/21 01:12:45;;;;;;;7.87;6.00;;;11.50;99.90;;;;;;4997199;28;20696;-64
2021/09/21 01:15:14;;;;;;;8.23;5.90;;;11.60;99.90;;;;;;4994924;28;20235;-64
2021/09/21 01:17:43;;;;;;;7.73;6.07;;;11.60;99.90;;;;;;4992743;28;20247;-64
2021/09/21 01:20:13;;;;;;;7.70;5.70;;;11.60;99.90;;;;;;4992197;28;20312;-64
2021/09/21 01:22:43;;;;;;;6.43;5.83;;;11.60;99.90;;;;;;4987138;28;20245;-63
2021/09/21 01:25:12;;;;;;;6.57;5.67;;;11.60;99.90;;;;;;4993150;28;20328;-63
2021/09/21 01:27:41;;;;;;;6.63;5.93;;;11.70;99.90;;;;;;4993593;28;20247;-64
2021/09/21 01:30:13;;;;;;;8.90;6.10;;;11.60;99.90;;;;;;4996596;28;20319;-64
2021/09/21 01:32:41;;;;;;;6.43;5.83;;;11.60;99.90;;;;;;4990696;28;20299;-65
2021/09/21 01:35:10;;;;;;;7.03;6.33;;;11.70;99.90;;;;;;4994230;28;20237;-64
2021/09/21 01:37:46;;;;;;;6.83;6.13;;;11.70;99.90;;;;;;4988237;28;20442;-65
2021/09/21 01:40:15;;;;;;;6.93;5.70;;;11.60;99.90;;;;;;4989740;28;20692;-65
2021/09/21 01:42:44;;;;;;;6.37;5.70;;;11.60;99.90;;;;;;4990501;28;20245;-64
2021/09/21 01:45:14;;;;;;;7.00;5.73;;;11.60;99.90;;;;;;4986619;28;20675;-64
2021/09/21 01:47:44;;;;;;;8.77;6.53;;;11.50;99.90;;;;;;4995205;28;20247;-64
2021/09/21 01:50:30;;;;;;;7.13;5.90;;;11.60;99.90;;;;;;4991769;28;20239;-64
2021/09/21 01:53:04;;;;;;;7.50;6.10;;;11.60;99.90;;;;;;4988145;28;20240;-64
2021/09/21 02:01:01;;;;;;;8.50;6.50;;;11.60;99.90;;;;;;4979053;28;20696;-64
2021/09/21 02:03:29;;;;;;;6.90;5.90;;;11.60;99.90;;;;;;4986445;28;20315;-64
2021/09/21 02:05:58;;;;;;;7.27;6.57;;;11.60;99.90;;;;;;4990872;28;20236;-64
2021/09/21 02:08:27;;;;;;;10.23;7.37;;;11.60;99.90;;;;;;4993148;28;20263;-64
2021/09/21 02:10:55;;;;;;;8.07;6.47;;;11.60;99.90;;;;;;4996948;28;20240;-64
2021/09/21 02:13:23;;;;;;;8.20;6.73;;;11.60;99.90;;;;;;4990816;28;20265;-64
2021/09/21 02:15:51;;;;;;;7.17;6.43;;;11.60;99.90;;;;;;4987384;28;20703;-64
2021/09/21 02:18:19;;;;;;;7.63;6.87;;;11.60;99.90;;;;;;4986332;28;20339;-64
2021/09/21 02:20:48;;;;;;;7.57;6.87;;;11.60;99.90;;;;;;4996379;28;20232;-64
2021/09/21 02:23:16;;;;;;;11.43;7.20;;;11.70;99.90;;;;;;4994528;28;20734;-64
2021/09/21 02:25:46;;;;;;;7.90;7.00;;;11.60;99.90;;;;;;4988906;28;21315;-64
2021/09/21 02:28:14;;;;;;;7.17;6.30;;;11.60;99.90;;;;;;4990118;28;20232;-64
2021/09/21 02:30:42;;;;;;;10.17;7.80;;;11.70;99.90;;;;;;4993690;28;20339;-63
2021/09/21 02:33:12;;;;;;;7.37;6.37;;;11.60;99.90;;;;;;4995260;28;20656;-65
2021/09/21 02:35:41;;;;;;;8.67;7.13;;;11.70;99.90;;;;;;4991416;28;20257;-64
2021/09/21 02:38:09;;;;;;;7.30;6.60;;;11.70;99.90;;;;;;4997898;28;20298;-64
2021/09/21 02:40:37;;;;;;;7.77;6.97;;;11.60;99.90;;;;;;4991735;28;20246;-64
2021/09/21 02:43:07;;;;;;;11.97;6.97;;;11.60;99.90;;;;;;4994404;28;20310;-64
2021/09/21 02:45:35;;;;;;;8.13;6.90;;;11.60;99.90;;;;;;4989508;28;20225;-64
2021/09/21 02:48:07;;;;;;;8.10;7.20;;;11.60;99.90;;;;;;4997177;28;20767;-64
2021/09/21 02:50:36;;;;;;;7.60;6.80;;;11.50;99.90;;;;;;4989406;28;20275;-64
2021/09/21 02:53:04;;;;;;;7.63;6.30;;;11.50;99.90;;;;;;5004935;28;20240;-64
2021/09/21 02:55:32;;;;;;;7.20;6.50;;;11.50;99.90;;;;;;4995713;28;20324;-64
2021/09/21 02:58:01;;;;;;;7.63;6.17;;;11.50;99.90;;;;;;4996737;28;20428;-64
2021/09/21 03:00:30;;;;;;;7.47;6.33;;;11.50;99.90;;;;;;4983393;28;20259;-65
2021/09/21 03:03:02;;;;;;;7.83;6.13;;;11.50;99.90;;;;;;4995928;28;20236;-65
2021/09/21 03:05:33;;;;;;;7.63;6.40;;;11.60;99.90;;;;;;4993405;28;20254;-64
2021/09/21 03:08:04;;;;;;;7.77;5.40;;;11.50;99.90;;;;;;4987801;28;20657;-64
2021/09/21 03:10:46;;;;;;;9.13;6.63;;;11.60;99.90;;;;;;4983609;28;20236;-64
2021/09/21 03:13:28;;;;;;;9.47;7.73;;;11.60;99.90;;;;;;4996572;28;20248;-65
2021/09/21 03:18:46;;;;;;;8.13;6.93;;;11.60;99.90;;;;;;4992526;28;20282;-65
2021/09/21 03:21:14;;;;;;;8.40;6.73;;;11.60;99.90;;;;;;4995988;28;20336;-64
2021/09/21 03:23:42;;;;;;;8.30;6.63;;;11.60;99.90;;;;;;4992906;28;20242;-64
2021/09/21 03:26:10;;;;;;;10.03;7.10;;;11.60;99.90;;;;;;4998918;28;20295;-64
2021/09/21 03:28:38;;;;;;;7.67;6.90;;;11.60;99.90;;;;;;4992762;28;20243;-64
2021/09/21 03:31:08;;;;;;;6.90;6.20;;;11.60;99.90;;;;;;4995484;28;20323;-64
2021/09/21 03:33:36;;;;;;;10.73;7.33;;;11.70;99.90;;;;;;4992589;28;20792;-64
2021/09/21 03:36:05;;;;;;;10.50;7.10;;;11.60;99.90;;;;;;4991278;28;20244;-64
2021/09/21 03:38:34;;;;;;;8.90;6.73;;;11.60;99.90;;;;;;4987447;28;20315;-64
2021/09/21 03:41:02;;;;;;;11.27;7.60;;;11.60;99.90;;;;;;4993838;28;20326;-64
2021/09/21 03:43:30;;;;;;;9.60;7.33;;;11.70;99.90;;;;;;4993484;28;20250;-64
2021/09/21 03:45:59;;;;;;;8.87;7.47;;;11.70;99.90;;;;;;4997693;28;20328;-64
2021/09/21 03:48:28;;;;;;;8.30;7.17;;;11.70;99.90;;;;;;4982030;28;20254;-64
2021/09/21 03:50:56;;;;;;;8.13;7.03;;;11.70;99.90;;;;;;4989475;28;20264;-64
2021/09/21 03:53:24;;;;;;;9.13;7.60;;;11.60;99.90;;;;;;4997043;28;20224;-64
2021/09/21 03:55:53;;;;;;;7.97;6.90;;;11.60;99.90;;;;;;4999724;28;20243;-64
2021/09/21 03:58:21;;;;;;;8.27;6.77;;;11.60;99.90;;;;;;4995417;28;20751;-64
2021/09/21 04:00:49;;;;;;;12.40;8.13;;;11.70;99.90;;;;;;4990349;28;20263;-64
2021/09/21 04:03:17;;;;;;;9.80;7.83;;;11.70;99.90;;;;;;4994662;28;20237;-64
2021/09/21 04:05:46;;;;;;;7.93;7.20;;;11.70;99.90;;;;;;4994670;28;20268;-64
2021/09/21 04:08:15;;;;;;;7.80;7.00;;;11.70;99.90;;;;;;4997280;28;20239;-64
2021/09/21 04:10:43;;;;;;;7.80;7.10;;;11.60;99.90;;;;;;4990802;28;20344;-64
2021/09/21 04:13:11;;;;;;;8.63;7.23;;;11.60;99.90;;;;;;4993880;28;20610;-64
2021/09/21 04:15:40;;;;;;;8.83;7.87;;;11.60;99.90;;;;;;4983715;28;20240;-64
2021/09/21 04:18:08;;;;;;;8.13;7.33;;;11.60;99.90;;;;;;4977440;28;20713;-64
2021/09/21 04:20:37;;;;;;;9.17;7.40;;;11.60;99.90;;;;;;4986490;28;20921;-64
2021/09/21 04:23:06;;;;;;;8.30;7.47;;;11.60;99.90;;;;;;4999156;28;20233;-64
2021/09/21 04:25:34;;;;;;;8.87;7.33;;;11.60;99.90;;;;;;4983168;28;20771;-63
2021/09/21 04:28:03;;;;;;;12.47;7.87;;;11.60;99.90;;;;;;4986980;28;20236;-64
2021/09/21 04:30:31;;;;;;;11.27;7.90;;;11.70;99.90;;;;;;4985510;28;20238;-64
2021/09/21 04:32:59;;;;;;;9.00;7.10;;;11.70;99.90;;;;;;4980961;28;20244;-64
2021/09/21 04:35:28;;;;;;;8.60;7.20;;;11.70;99.90;;;;;;4988301;28;20241;-65
2021/09/21 04:37:56;;;;;;;7.57;6.87;;;11.60;99.90;;;;;;4981309;28;20248;-64
2021/09/21 04:40:25;;;;;;;8.53;7.50;;;11.60;99.90;;;;;;4988730;28;20315;-65
2021/09/21 04:42:53;;;;;;;16.70;8.67;;;11.60;99.90;;;;;;4989377;28;20245;-64
2021/09/21 04:45:22;;;;;;;9.13;7.80;;;11.80;99.90;;;;;;4991804;28;20334;-64
2021/09/21 04:47:50;;;;;;;8.77;7.37;;;11.70;99.90;;;;;;4991099;28;20275;-64
2021/09/21 04:50:48;;;;;;;9.83;8.10;;;11.70;99.90;;;;;;4993738;28;20408;-64
2021/09/21 04:53:16;;;;;;;8.93;7.70;;;11.70;99.90;;;;;;4987420;28;20325;-64
2021/09/21 04:55:45;;;;;;;8.60;7.60;;;11.70;99.90;;;;;;4987639;28;20241;-64
2021/09/21 04:58:13;;;;;;;8.47;7.57;;;11.70;99.90;;;;;;4991044;28;20601;-64
2021/09/21 05:00:41;;;;;;;9.40;7.53;;;11.70;99.90;;;;;;4982470;28;20713;-64
2021/09/21 05:03:10;;;;;;;8.07;7.27;;;11.80;99.90;;;;;;4987695;28;20597;-64
2021/09/21 05:05:38;;;;;;;8.90;7.43;;;11.70;99.90;;;;;;4984529;28;20228;-64
2021/09/21 05:08:06;;;;;;;8.07;7.27;;;11.70;99.90;;;;;;4980588;28;20245;-64
2021/09/21 05:10:34;;;;;;;7.37;6.63;;;11.70;99.90;;;;;;4990850;28;20518;-64
2021/09/21 05:13:03;;;;;;;8.77;6.97;;;11.70;99.90;;;;;;4978628;28;20324;-64
2021/09/21 05:15:32;;;;;;;11.00;7.77;;;11.70;99.90;;;;;;4985848;28;20750;-65
2021/09/21 05:18:00;;;;;;;10.97;8.57;;;11.80;99.90;;;;;;4987562;28;20240;-65
2021/09/21 05:20:28;;;;;;;8.10;7.30;;;11.80;99.90;;;;;;4986605;28;20236;-64
2021/09/21 05:22:56;;;;;;;8.87;6.80;;;11.80;99.90;;;;;;4993733;28;20664;-64
2021/09/21 05:25:24;;;;;;;8.03;7.23;;;11.70;99.90;;;;;;4982042;28;20244;-64
2021/09/21 05:27:52;;;;;;;12.30;7.80;;;11.70;99.90;;;;;;4984616;28;20705;-64
2021/09/21 05:30:22;;;;;;;12.63;7.90;;;12.00;99.90;;;;;;4982325;28;20245;-64
2021/09/21 05:32:50;;;;;;;10.60;8.47;;;12.20;99.90;;;;;;4979090;28;20249;-64
2021/09/21 05:35:18;;;;;;;8.47;7.43;;;12.30;99.90;;;;;;4992839;28;20742;-65
2021/09/21 05:37:46;;;;;;;8.63;7.77;;;12.40;99.90;;;;;;4971016;28;20240;-64
2021/09/21 05:40:16;;;;;;;9.83;7.83;;;12.30;99.90;;;;;;4967920;28;20237;-65
2021/09/21 05:42:45;;;;;;;7.97;7.17;;;12.30;99.90;;;;;;4969763;28;20256;-65
2021/09/21 05:45:13;;;;;;;8.87;7.33;;;12.20;99.90;;;;;;4973585;28;20739;-64
2021/09/21 05:47:43;;;;;;;8.60;7.73;;;12.10;99.90;;;;;;4963483;28;20263;-64
2021/09/21 05:50:14;;;;;;;8.60;7.77;;;12.00;99.90;;;;;;4974069;28;20234;-64
2021/09/21 05:52:44;;;;;;;8.80;7.47;;;12.00;99.90;;;;;;4975571;28;20291;-64
2021/09/21 05:55:13;;;;;;;9.13;7.63;;;12.00;99.90;;;;;;4971339;28;20768;-65
2021/09/21 05:57:43;;;;;;;9.70;7.90;;;11.90;99.90;;;;;;4972739;28;20248;-64
2021/09/21 06:00:13;;;;;;;8.60;7.70;;;12.00;99.90;;;;;;4971602;28;20245;-65
2021/09/21 06:02:42;;;;;;;9.43;7.87;;;12.00;99.90;;;;;;4970208;28;20259;-64
2021/09/21 06:05:12;;;;;;;10.57;8.03;;;12.00;99.90;;;;;;4970809;28;20248;-65
2021/09/21 06:07:48;;;;;;;8.97;8.07;;;12.00;99.90;;;;;;4971567;28;20240;-64
2021/09/21 06:10:16;;;;;;;10.47;7.87;;;12.10;99.90;;;;;;4973886;28;20321;-65
2021/09/21 06:12:44;;;;;;;8.53;7.33;;;12.10;99.90;;;;;;4968404;28;20245;-64
2021/09/21 06:15:14;;;;;;;8.93;8.03;;;12.10;99.90;;;;;;4970992;28;20280;-64
2021/09/21 06:17:44;;;;;;;9.23;7.93;;;12.10;99.90;;;;;;4974661;28;20590;-65
2021/09/21 06:20:13;;;;;;;8.50;7.33;;;12.10;99.90;;;;;;4970914;28;20321;-64
2021/09/21 06:22:43;;;;;;;12.30;7.73;;;12.10;99.90;;;;;;4973512;28;20326;-64
2021/09/21 06:25:13;;;;;;;8.97;6.90;;;12.20;99.90;;;;;;4978425;28;20237;-64
2021/09/21 06:27:41;;;;;;;8.53;7.50;;;12.20;99.90;;;;;;4973404;28;20666;-64
2021/09/21 06:30:16;;;;;;;8.57;7.50;;;12.10;99.90;;;;;;4970004;28;20235;-64
2021/09/21 06:32:46;;;;;;;8.87;7.50;;;12.10;99.90;;;;;;4977724;28;20284;-64
2021/09/21 06:35:15;;;;;;;8.03;7.23;;;12.10;99.90;;;;;;4979670;28;20324;-64
2021/09/21 06:37:43;;;;;;;8.53;7.23;;;12.20;99.90;;;;;;4989546;28;20252;-64
2021/09/21 06:40:12;;;;;;;9.93;7.53;;;12.20;99.90;;;;;;4999667;28;20648;-64
2021/09/21 06:42:42;;;;;;;8.37;7.47;;;12.20;99.90;;;;;;4996159;28;20724;-65
2021/09/21 06:45:14;;;;;;;8.70;7.03;;;12.30;99.90;;;;;;5001507;28;20233;-65
2021/09/21 06:47:43;;;;;;;8.17;7.43;;;12.30;99.90;;;;;;4991059;28;20273;-65
2021/09/21 06:50:13;;;;;;;8.73;7.83;;;12.30;99.90;;;;;;4988025;28;20233;-65
2021/09/21 06:52:42;;;;;;;8.17;7.30;;;12.30;99.90;;;;;;4986200;28;20328;-65
2021/09/21 06:55:11;;;;;;;7.73;6.73;;;12.40;99.90;;;;;;4992193;28;20237;-64
2021/09/21 06:57:40;;;;;;;8.77;6.60;;;12.40;99.90;;;;;;4987365;28;20311;-65
2021/09/21 07:00:10;;;;;;;8.40;7.57;;;12.40;99.90;;;;;;4984602;28;20240;-65
2021/09/21 07:02:40;;;;;;;8.30;7.20;;;12.40;99.90;;;;;;4991121;28;20244;-65
2021/09/21 07:05:13;;;;;;;7.67;6.47;;;12.50;99.90;;;;;;4996332;28;20556;-65
2021/09/21 07:07:44;;;;;;;8.73;7.27;;;12.60;99.90;;;;;;4993537;28;20264;-64
2021/09/21 07:10:17;;;;;;;8.47;7.67;;;12.50;99.90;;;;;;4994790;28;20240;-65
2021/09/21 07:12:46;;;;;;;7.87;7.07;;;12.50;99.90;;;;;;4988890;28;20245;-65
2021/09/21 07:15:15;;;;;;;8.30;7.30;;;12.50;99.90;;;;;;4990862;28;20233;-64
2021/09/21 07:17:43;;;;;;;7.57;6.77;;;12.50;99.90;;;;;;4987057;28;20269;-64
2021/09/21 07:20:13;;;;;;;8.43;7.37;;;12.50;99.90;;;;;;4994194;28;20240;-64
2021/09/21 07:22:45;;;;;;;7.73;6.93;;;12.50;99.90;;;;;;4993707;28;20725;-64
2021/09/21 07:25:13;;;;;;;7.43;6.73;;;12.60;99.90;;;;;;4987780;28;20246;-65
2021/09/21 07:27:42;;;;;;;10.53;7.27;;;12.60;99.90;;;;;;4992802;28;20244;-65
2021/09/21 07:30:11;;;;;;;9.67;7.50;;;12.60;99.90;;;;;;4996631;28;20347;-65
2021/09/21 07:32:39;;;;;;;7.80;6.77;;;12.70;99.90;;;;;;4990261;28;20246;-65
2021/09/21 07:35:08;;;;;;;7.63;6.87;;;12.60;99.90;;;;;;4990870;28;20650;-64
2021/09/21 07:37:37;;;;;;;9.50;6.93;;;12.70;99.90;;;;;;4993057;28;20725;-64
2021/09/21 07:40:08;;;;;;;10.00;6.67;;;12.70;99.90;;;;;;4996864;28;20250;-65
2021/09/21 07:42:36;;;;;;;7.33;6.63;;;12.70;99.90;;;;;;4991193;28;20241;-65
2021/09/21 07:45:08;;;;;;;8.53;6.70;;;12.70;99.90;;;;;;4999165;28;20695;-64
2021/09/21 07:47:36;;;;;;;7.60;6.40;;;12.90;99.90;;;;;;4985045;28;20343;-64
2021/09/21 07:50:05;;;;;;;10.30;6.77;;;12.90;99.90;;;;;;4988162;28;20426;-65
2021/09/21 07:52:33;;;;;;;8.70;6.57;;;12.90;99.90;;;;;;4986241;28;20241;-64
2021/09/21 07:55:03;;;;;;;8.17;6.97;;;12.80;99.90;;;;;;4989805;28;20812;-64
2021/09/21 07:57:36;;;;;;;7.93;6.90;;;12.90;99.90;;;;;;4991650;28;20554;-65
2021/09/21 08:00:06;;;;;;;7.87;6.93;;;13.00;99.90;;;;;;4993920;28;20327;-65
2021/09/21 08:02:39;;;;;;;8.67;6.63;;;13.00;99.90;;;;;;4991887;28;20237;-65
2021/09/21 08:05:09;;;;;;;7.97;6.57;;;13.10;99.90;;;;;;4993913;28;20237;-65
2021/09/21 08:07:37;;;;;;;6.70;6.10;;;13.10;99.90;;;;;;4992012;28;20312;-64
2021/09/21 08:10:09;;;;;;;6.50;5.87;;;13.20;99.90;;;;;;4989221;28;20245;-65
2021/09/21 08:12:39;;;;;;;10.27;6.70;;;13.20;99.90;;;;;;4992386;28;20704;-65
2021/09/21 08:15:08;;;;;;;7.40;6.60;;;13.20;99.90;;;;;;4989073;28;20891;-65
2021/09/21 08:17:37;;;;;;;8.67;6.37;;;13.20;99.90;;;;;;4988722;28;20720;-64
2021/09/21 08:20:07;;;;;;;7.40;6.60;;;13.20;99.90;;;;;;4986780;28;20242;-64
2021/09/21 08:22:36;;;;;;;8.90;6.83;;;13.10;99.90;;;;;;4988320;28;20250;-64
2021/09/21 08:25:08;;;;;;;8.43;6.47;;;13.20;99.90;;;;;;4991070;28;20324;-65
2021/09/21 08:27:38;;;;;;;7.40;5.90;;;13.20;99.90;;;;;;4985742;28;20249;-64
2021/09/21 08:30:26;;;;;;;7.00;6.30;;;13.30;99.90;;;;;;4989931;28;20317;-65
2021/09/21 08:32:54;;;;;;;7.60;6.00;;;13.30;99.90;;;;;;4992325;28;20246;-64
2021/09/21 08:35:22;;;;;;;7.20;5.80;;;13.40;99.90;;;;;;4988267;28;20252;-64
2021/09/21 08:37:51;;;;;;;6.33;5.73;;;13.50;99.90;;;;;;4993136;28;20241;-64
2021/09/21 08:40:20;;;;;;;6.67;5.90;;;13.60;99.90;;;;;;4991737;28;20884;-64
2021/09/21 08:42:48;;;;;;;7.77;6.13;;;13.80;99.90;;;;;;4988812;28;20246;-65
2021/09/21 08:45:17;;;;;;;7.03;6.00;;;13.90;99.90;;;;;;4991335;28;20328;-64
2021/09/21 08:47:45;;;;;;;7.40;5.97;;;14.10;99.90;;;;;;4985782;28;20232;-64
2021/09/21 08:50:14;;;;;;;7.30;6.00;;;14.20;99.90;;;;;;4987900;28;20248;-64
2021/09/21 08:52:47;;;;;;;6.83;5.50;;;14.30;99.90;;;;;;4991226;28;20248;-64
2021/09/21 08:55:16;;;;;;;6.20;5.60;;;14.40;99.90;;;;;;4988782;28;20244;-65
2021/09/21 08:57:47;;;;;;;7.50;5.83;;;14.50;99.90;;;;;;4988693;28;20323;-64
2021/09/21 09:00:27;;;;;;;6.47;5.60;;;14.70;99.90;;;;;;4994880;28;20248;-64
2021/09/21 09:03:04;;;;;;;7.87;5.93;;;14.80;99.90;;;;;;4987101;28;20244;-63
2021/09/21 09:05:46;;;;;;;7.07;5.73;;;15.00;99.90;;;;;;4984807;28;20260;-64
2021/09/21 09:08:29;;;;;;;6.57;5.87;;;15.00;99.90;;;;;;4985792;28;20246;-64
2021/09/21 09:11:10;;;;;;;6.67;5.73;;;15.10;99.90;;;;;;4982825;28;20257;-64
2021/09/21 09:13:41;;;;;;;6.17;5.17;;;15.10;99.90;;;;;;4995445;28;20809;-64
2021/09/21 09:16:13;;;;;;;6.13;5.40;;;15.20;99.90;;;;;;4989427;28;20606;-64
2021/09/21 09:18:43;;;;;;;7.30;5.70;;;15.20;99.90;;;;;;4992013;28;20238;-64
2021/09/21 09:21:14;;;;;;;6.17;5.50;;;15.20;99.90;;;;;;4988341;28;20233;-64
2021/09/21 09:23:47;;;;;;;6.10;5.40;;;15.20;99.90;;;;;;4992219;28;20657;-64
2021/09/21 09:26:19;;;;;;;6.37;5.07;;;15.20;99.90;;;;;;4988470;28;20288;-64
2021/09/21 09:28:49;;;;;;;6.17;5.40;;;15.20;99.90;;;;;;4987033;28;20328;-64
2021/09/21 09:31:25;;;;;;;6.90;5.53;;;15.20;99.90;;;;;;4988724;28;20722;-64
2021/09/21 09:34:05;;;;;;;6.27;5.00;;;15.20;99.90;;;;;;4991487;28;20247;-64
2021/09/21 09:36:49;;;;;;;6.10;5.50;;;15.30;99.90;;;;;;4990836;28;20304;-64
2021/09/21 09:39:19;;;;;;;5.77;5.03;;;15.40;99.90;;;;;;4992965;28;20295;-65
2021/09/21 09:41:48;;;;;;;7.63;4.73;;;15.50;99.90;;;;;;4986614;28;20253;-64
2021/09/21 09:44:20;;;;;;;6.20;5.23;;;15.60;99.90;;;;;;4975045;28;20316;-64
2021/09/21 09:46:51;;;;;;;5.37;4.70;;;15.70;99.90;;;;;;4990271;28;20581;-65
2021/09/21 09:49:27;;;;;;;6.33;4.97;;;15.80;99.90;;;;;;4988778;28;20835;-65
2021/09/21 09:51:58;;;;;;;6.07;4.97;;;15.90;99.90;;;;;;4994170;28;20260;-65
2021/09/21 09:54:26;;;;;;;6.10;4.77;;;16.10;99.90;;;;;;4896075;28;20927;-65
2021/09/21 09:56:54;;;;;;;7.70;5.13;;;16.20;99.90;;;;;;1030450;28;10002012;-64
2021/09/21 09:59:27;;;;;;;6.37;4.83;;;16.30;99.90;;;;;;4979854;28;21474;-64
2021/09/21 10:01:56;;;;;;;7.30;4.50;;;16.30;99.90;;;;;;4984489;28;20265;-64
2021/09/21 10:04:25;;;;;;;8.40;5.03;;;16.40;99.90;;;;;;4984839;28;20245;-64
2021/09/21 10:06:53;;;;;;;6.00;4.77;;;16.40;99.90;;;;;;4982742;28;20242;-64
2021/09/21 10:09:21;;;;;;;5.97;4.40;;;16.50;99.90;;;;;;4985345;28;20714;-64
2021/09/21 10:11:53;;;;;;;5.43;4.93;;;16.50;99.90;;;;;;4980664;28;20261;-64
2021/09/21 10:14:24;;;;;;;7.93;4.90;;;16.40;99.90;;;;;;4983350;28;20244;-64
2021/09/21 10:16:53;;;;;;;7.20;4.97;;;16.40;99.90;;;;;;4983409;28;20511;-63
2021/09/21 10:19:25;;;;;;;6.73;5.43;;;16.50;99.90;;;;;;4982865;28;20239;-65
2021/09/21 10:21:55;;;;;;;5.63;4.83;;;16.50;99.90;;;;;;4986254;28;20255;-64
2021/09/21 10:24:37;;;;;;;6.43;5.50;;;16.50;99.90;;;;;;4980579;28;23294;-64
2021/09/21 10:27:07;;;;;;;8.23;5.20;;;16.60;99.90;;;;;;4980741;28;20238;-64
2021/09/21 10:29:37;;;;;;;5.70;4.80;;;16.50;99.90;;;;;;4983945;28;20249;-64
2021/09/21 10:32:11;;;;;;;5.37;4.87;;;16.50;99.90;;;;;;4983378;28;20507;-64
2021/09/21 10:34:41;;;;;;;6.97;4.80;;;16.40;99.90;;;;;;4984662;28;20328;-64
2021/09/21 10:37:09;;;;;;;14.27;4.83;;;16.40;99.90;;;;;;4986211;28;20269;-64
2021/09/21 10:39:38;;;;;;;5.43;4.63;;;16.40;99.90;;;;;;4982888;28;20364;-64
2021/09/21 10:42:08;;;;;;;7.13;5.30;;;16.50;99.90;;;;;;4983128;28;20234;-64
2021/09/21 10:44:50;;;;;;;5.97;4.60;;;16.50;99.90;;;;;;4982578;28;20241;-64
2021/09/21 10:47:24;;;;;;;5.23;4.40;;;16.60;99.90;;;;;;4985112;28;20238;-64
2021/09/21 10:50:08;;;;;;;5.40;4.67;;;16.70;99.90;;;;;;4989437;28;20245;-64
2021/09/21 10:52:38;;;;;;;6.07;4.50;;;16.90;99.90;;;;;;4984914;28;20332;-65
2021/09/21 10:55:08;;;;;;;7.83;5.03;;;16.90;99.90;;;;;;4984429;28;20234;-64
2021/09/21 10:57:40;;;;;;;5.13;4.63;;;16.90;99.90;;;;;;4987516;28;20250;-64
2021/09/21 11:00:13;;;;;;;6.37;4.77;;;16.90;99.90;;;;;;4983036;28;20277;-64
2021/09/21 11:02:43;;;;;;;5.17;4.57;;;16.90;99.90;;;;;;4984126;28;20288;-64
2021/09/21 11:05:15;;;;;;;7.30;4.57;;;16.90;99.90;;;;;;4982250;28;20797;-64
2021/09/21 11:07:52;;;;;;;7.10;4.23;;;16.90;99.90;;;;;;4979341;28;20785;-65
2021/09/21 11:10:22;;;;;;;6.30;4.80;;;17.00;99.90;;;;;;4982636;28;20304;-65
2021/09/21 11:12:52;;;;;;;5.47;4.40;;;17.00;99.90;;;;;;4981525;28;20231;-64
2021/09/21 11:15:24;;;;;;;6.57;5.07;;;17.00;99.90;;;;;;4981416;28;20307;-64
2021/09/21 11:18:02;;;;;;;5.10;4.37;;;16.90;99.90;;;;;;4981369;28;20241;-64
2021/09/21 11:20:31;;;;;;;5.10;4.60;;;16.90;99.90;;;;;;4983921;28;20239;-64
2021/09/21 11:23:03;;;;;;;5.80;4.60;;;16.90;99.90;;;;;;4985035;28;20254;-64
2021/09/21 11:25:31;;;;;;;8.10;4.87;;;16.90;99.90;;;;;;4982463;28;20300;-64
2021/09/21 11:27:59;;;;;;;5.47;4.93;;;16.90;99.90;;;;;;4986659;28;20611;-64
2021/09/21 11:30:29;;;;;;;5.17;4.47;;;17.00;99.90;;;;;;4991291;28;20328;-65
2021/09/21 11:32:57;;;;;;;7.17;5.27;;;17.00;99.90;;;;;;4985800;28;20244;-65
2021/09/21 11:35:30;;;;;;;5.17;4.37;;;17.10;99.90;;;;;;4985842;28;20238;-65
2021/09/21 11:37:58;;;;;;;5.57;5.07;;;17.10;99.90;;;;;;4985662;28;20676;-64
2021/09/21 11:40:28;;;;;;;5.83;5.00;;;17.10;99.90;;;;;;4987278;28;20324;-65
2021/09/21 11:42:58;;;;;;;7.17;4.93;;;17.20;99.90;;;;;;4982442;28;20258;-64
2021/09/21 11:45:27;;;;;;;5.70;4.90;;;17.30;99.90;;;;;;4997053;28;20246;-65
2021/09/21 11:47:57;;;;;;;6.00;5.23;;;17.30;99.90;;;;;;4979225;28;20243;-64
2021/09/21 11:50:27;;;;;;;5.80;5.20;;;17.40;99.90;;;;;;4997447;28;20243;-65
2021/09/21 11:52:57;;;;;;;6.57;4.93;;;17.50;99.90;;;;;;4992214;28;20243;-65
2021/09/21 11:55:47;;;;;;;6.87;5.43;;;17.60;99.90;;;;;;4986797;28;20248;-64
2021/09/21 11:58:16;;;;;;;5.67;5.03;;;17.50;99.90;;;;;;4991834;28;20252;-64
2021/09/21 12:00:46;;;;;;;6.00;5.40;;;17.50;99.90;;;;;;4986686;28;20244;-64
2021/09/21 12:03:18;;;;;;;8.00;5.60;;;17.50;99.90;;;;;;4987365;28;20243;-64
2021/09/21 12:05:48;;;;;;;7.93;5.43;;;17.50;99.90;;;;;;4988860;28;20743;-63
2021/09/21 12:08:18;;;;;;;5.87;5.27;;;17.50;99.90;;;;;;4994256;28;20286;-64
2021/09/21 12:10:52;;;;;;;7.00;5.50;;;17.60;99.90;;;;;;4993780;28;20239;-64
2021/09/21 12:13:22;;;;;;;5.77;5.07;;;17.50;99.90;;;;;;4986425;28;20248;-64
2021/09/21 12:15:52;;;;;;;7.03;6.00;;;17.50;99.90;;;;;;4994250;28;20305;-64
2021/09/21 12:18:23;;;;;;;7.53;5.20;;;17.40;99.90;;;;;;4990246;28;20242;-64
2021/09/21 12:20:54;;;;;;;6.83;5.77;;;17.40;99.90;;;;;;4988604;28;20763;-64
2021/09/21 12:23:25;;;;;;;10.17;5.83;;;17.60;99.90;;;;;;4989295;28;20631;-63
2021/09/21 12:25:56;;;;;;;8.37;5.90;;;17.60;99.90;;;;;;4982388;28;20258;-64
2021/09/21 12:28:26;;;;;;;6.80;6.10;;;17.60;99.90;;;;;;4987786;28;20257;-64
2021/09/21 12:30:56;;;;;;;6.77;5.83;;;17.60;99.90;;;;;;4995508;28;20733;-64
2021/09/21 12:33:25;;;;;;;7.00;5.37;;;17.70;99.90;;;;;;4991832;28;22660;-64
2021/09/21 12:35:54;;;;;;;8.20;5.63;;;17.80;99.90;;;;;;4986709;28;20282;-64
2021/09/21 12:38:25;;;;;;;7.40;5.67;;;17.90;99.90;;;;;;4988877;28;20241;-65
2021/09/21 12:40:56;;;;;;;7.63;5.90;;;17.90;99.90;;;;;;4989462;28;20333;-63
2021/09/21 12:43:26;;;;;;;8.33;5.77;;;18.00;99.90;;;;;;4992300;28;20939;-65
2021/09/21 12:45:57;;;;;;;6.33;5.40;;;18.00;99.90;;;;;;4989910;28;20250;-64
2021/09/21 12:48:30;;;;;;;6.83;6.13;;;18.10;99.90;;;;;;4989817;28;20278;-64
2021/09/21 12:51:01;;;;;;;7.50;6.47;;;18.00;99.90;;;;;;4991645;28;20699;-64
2021/09/21 12:53:29;;;;;;;7.27;5.80;;;17.90;99.90;;;;;;4985547;28;20313;-64
2021/09/21 12:55:59;;;;;;;8.10;6.57;;;18.00;99.90;;;;;;4986442;28;20294;-64
2021/09/21 12:58:33;;;;;;;7.60;6.37;;;18.00;99.90;;;;;;4988484;28;20256;-64
2021/09/21 13:01:02;;;;;;;8.47;6.23;;;18.00;99.90;;;;;;4988721;28;20669;-64
2021/09/21 13:03:33;;;;;;;8.30;6.60;;;18.00;99.90;;;;;;4984102;28;20272;-64
2021/09/21 13:06:01;;;;;;;6.93;5.63;;;18.00;99.90;;;;;;4991451;28;20305;-64
2021/09/21 13:08:29;;;;;;;7.57;6.33;;;18.00;99.90;;;;;;4985083;28;20246;-65